Time;durP1;ratioP1;P1;durP2;ratioP2;P2;SDS_P1;SDS_P2;PMS_P1;PMS_P2;Temp;Humidity;BMP_temperature;BMP_pressure;BME280_temperature;BME280_humidity;BME280_pressure;Samples;Min_cycle;Max_cycle;Signal;HPM_P1;HPM_P2
2023/12/27 00:00:35;;;;;;;;;;;8.90;99.90;;;;;;5069358;28;20398;-79
2023/12/27 00:03:01;;;;;;;;;;;8.90;99.90;;;;;;5071060;28;19937;-77
2023/12/27 00:05:28;;;;;;;;;;;8.90;99.90;;;;;;5074220;28;19928;-79
2023/12/27 00:07:56;;;;;;;;;;;8.80;99.90;;;;;;5068769;28;19955;-80
2023/12/27 00:10:22;;;;;;;;;;;8.90;99.90;;;;;;5068388;28;19932;-79
2023/12/27 00:12:49;;;;;;;;;;;8.80;99.90;;;;;;5067751;28;19936;-79
2023/12/27 00:15:15;;;;;;;;;;;8.90;99.90;;;;;;5066250;28;19928;-79
2023/12/27 00:17:42;;;;;;;;;;;8.80;99.90;;;;;;5067775;28;19932;-79
2023/12/27 00:20:09;;;;;;;;;;;8.80;99.90;;;;;;5067026;28;19936;-80
2023/12/27 00:22:36;;;;;;;;;;;8.80;99.90;;;;;;5067965;28;20050;-81
2023/12/27 00:25:04;;;;;;;;;;;8.80;99.90;;;;;;5064126;28;20030;-80
2023/12/27 00:27:30;;;;;;;;;;;8.80;99.90;;;;;;5063254;28;20345;-79
2023/12/27 00:29:57;;;;;;;;;;;8.80;99.90;;;;;;5065888;28;19928;-79
2023/12/27 00:32:24;;;;;;;;;;;8.80;99.90;;;;;;5069250;28;19954;-79
2023/12/27 00:34:50;;;;;;;;;;;8.80;99.90;;;;;;5067475;28;19928;-79
2023/12/27 00:37:17;;;;;;;;;;;8.80;99.90;;;;;;5066808;28;20399;-79
2023/12/27 00:39:44;;;;;;;;;;;8.80;99.90;;;;;;5064418;28;19936;-79
2023/12/27 00:42:12;;;;;;;;;;;8.80;99.90;;;;;;5066573;28;19929;-78
2023/12/27 00:44:39;;;;;;;;;;;8.80;99.90;;;;;;5065426;28;19928;-80
2023/12/27 00:47:05;;;;;;;;;;;8.80;99.90;;;;;;5063986;28;20302;-79
2023/12/27 00:49:32;;;;;;;;;;;8.70;99.90;;;;;;5066456;28;20742;-80
2023/12/27 00:51:58;;;;;;;;;;;8.70;99.90;;;;;;5065912;28;19939;-80
2023/12/27 00:54:25;;;;;;;;;;;8.70;99.90;;;;;;5066995;28;19928;-79
2023/12/27 00:56:51;;;;;;;;;;;8.70;99.90;;;;;;5069056;28;19935;-79
2023/12/27 00:59:19;;;;;;;;;;;8.70;99.90;;;;;;5066189;28;19937;-78
2023/12/27 01:01:46;;;;;;;;;;;8.70;99.90;;;;;;5064377;28;19936;-79
2023/12/27 01:04:13;;;;;;;;;;;8.70;99.90;;;;;;5064896;28;19939;-80
2023/12/27 01:06:39;;;;;;;;;;;8.70;99.90;;;;;;5065151;28;19928;-79
2023/12/27 01:09:07;;;;;;;;;;;8.70;99.90;;;;;;5062024;28;19929;-80
2023/12/27 01:11:33;;;;;;;;;;;8.70;99.90;;;;;;5071372;28;20370;-82
2023/12/27 01:14:01;;;;;;;;;;;8.60;99.90;;;;;;5064657;28;19939;-79
2023/12/27 01:16:29;;;;;;;;;;;8.70;99.90;;;;;;5067684;28;19928;-81
2023/12/27 01:18:56;;;;;;;;;;;8.70;99.90;;;;;;5061801;28;19929;-79
2023/12/27 01:21:22;;;;;;;;;;;8.60;99.90;;;;;;5066378;28;19933;-79
2023/12/27 01:23:49;;;;;;;;;;;8.60;99.90;;;;;;5068802;28;20021;-78
2023/12/27 01:26:16;;;;;;;;;;;8.60;99.90;;;;;;5067273;28;19928;-80
2023/12/27 01:28:42;;;;;;;;;;;8.60;99.90;;;;;;5063259;28;20402;-80
2023/12/27 01:31:09;;;;;;;;;;;8.60;99.90;;;;;;5067692;28;20314;-80
2023/12/27 01:33:37;;;;;;;;;;;8.60;99.90;;;;;;5068232;28;19928;-80
2023/12/27 01:36:07;;;;;;;;;;;8.60;99.90;;;;;;5065459;28;19947;-81
2023/12/27 01:38:33;;;;;;;;;;;8.60;99.90;;;;;;5066260;28;20056;-79
2023/12/27 01:41:00;;;;;;;;;;;8.60;99.90;;;;;;5063131;28;19929;-79
2023/12/27 01:43:26;;;;;;;;;;;8.60;99.90;;;;;;5066881;28;19932;-78
2023/12/27 01:45:53;;;;;;;;;;;8.60;99.90;;;;;;5065726;28;20412;-79
2023/12/27 01:48:20;;;;;;;;;;;8.60;99.90;;;;;;5065968;28;19936;-80
2023/12/27 01:50:48;;;;;;;;;;;8.60;99.90;;;;;;5066010;28;20025;-79
2023/12/27 01:53:15;;;;;;;;;;;8.60;99.90;;;;;;5062237;28;19928;-80
2023/12/27 01:55:42;;;;;;;;;;;8.60;99.90;;;;;;5068079;28;19939;-79
2023/12/27 01:58:10;;;;;;;;;;;8.50;99.90;;;;;;5066942;28;19957;-80
2023/12/27 02:00:37;;;;;;;;;;;8.50;99.90;;;;;;5063867;28;20382;-79
2023/12/27 02:03:04;;;;;;;;;;;8.50;99.90;;;;;;5066218;28;21140;-80
2023/12/27 02:05:31;;;;;;;;;;;8.50;99.90;;;;;;5062324;28;19928;-79
2023/12/27 02:08:00;;;;;;;;;;;8.50;99.90;;;;;;5062433;28;19928;-80
2023/12/27 02:10:27;;;;;;;;;;;8.50;99.90;;;;;;5063855;28;20390;-80
2023/12/27 02:12:54;;;;;;;;;;;8.50;99.90;;;;;;5064856;28;20047;-80
2023/12/27 02:15:20;;;;;;;;;;;8.50;99.90;;;;;;5064787;28;19978;-80
2023/12/27 02:17:48;;;;;;;;;;;8.50;99.90;;;;;;5065110;28;19992;-79
2023/12/27 02:20:15;;;;;;;;;;;8.50;99.90;;;;;;5065551;28;19981;-79
2023/12/27 02:22:43;;;;;;;;;;;8.50;99.90;;;;;;5063842;28;19929;-78
2023/12/27 02:25:11;;;;;;;;;;;8.50;99.90;;;;;;5058804;28;19944;-80
2023/12/27 02:27:37;;;;;;;;;;;8.50;99.90;;;;;;5063155;28;19932;-79
2023/12/27 02:30:05;;;;;;;;;;;8.50;99.90;;;;;;5064454;28;19956;-80
2023/12/27 02:32:31;;;;;;;;;;;8.50;99.90;;;;;;5063455;28;19936;-80
2023/12/27 02:34:58;;;;;;;;;;;8.50;99.90;;;;;;5063458;28;19935;-79
2023/12/27 02:37:24;;;;;;;;;;;8.50;99.90;;;;;;5058586;28;19932;-80
2023/12/27 02:39:51;;;;;;;;;;;8.50;99.90;;;;;;5063285;28;19933;-78
2023/12/27 02:42:19;;;;;;;;;;;8.50;99.90;;;;;;5064205;28;19928;-79
2023/12/27 02:44:45;;;;;;;;;;;8.50;99.90;;;;;;5063890;28;20521;-79
2023/12/27 02:47:12;;;;;;;;;;;8.50;99.90;;;;;;5060828;28;20441;-79
2023/12/27 02:49:38;;;;;;;;;;;8.40;99.90;;;;;;5060404;28;19929;-81
2023/12/27 02:52:05;;;;;;;;;;;8.50;99.90;;;;;;5064075;28;19928;-79
2023/12/27 02:54:32;;;;;;;;;;;8.40;99.90;;;;;;5062953;28;19940;-80
2023/12/27 02:56:58;;;;;;;;;;;8.40;99.90;;;;;;5062355;28;19946;-80
2023/12/27 02:59:26;;;;;;;;;;;8.50;99.90;;;;;;5061387;28;20382;-80
2023/12/27 03:01:53;;;;;;;;;;;8.50;99.90;;;;;;5064052;28;20398;-79
2023/12/27 03:04:19;;;;;;;;;;;8.50;99.90;;;;;;5061989;28;19928;-79
2023/12/27 03:06:46;;;;;;;;;;;8.40;99.90;;;;;;5063377;28;19928;-78
2023/12/27 03:09:12;;;;;;;;;;;8.40;99.90;;;;;;5063206;28;19928;-78
2023/12/27 03:11:39;;;;;;;;;;;8.40;99.90;;;;;;5067574;28;20555;-79
2023/12/27 03:14:05;;;;;;;;;;;8.40;99.90;;;;;;5062656;28;19948;-80
2023/12/27 03:16:33;;;;;;;;;;;8.40;99.90;;;;;;5064970;28;19932;-79
2023/12/27 03:19:00;;;;;;;;;;;8.40;99.90;;;;;;5061829;28;19932;-78
2023/12/27 03:21:26;;;;;;;;;;;8.40;99.90;;;;;;5063872;28;19928;-80
2023/12/27 03:23:53;;;;;;;;;;;8.40;99.90;;;;;;5063298;28;19941;-79
2023/12/27 03:26:19;;;;;;;;;;;8.40;99.90;;;;;;5065108;28;19928;-79
2023/12/27 03:28:46;;;;;;;;;;;8.40;99.90;;;;;;5069076;28;19928;-79
2023/12/27 03:31:13;;;;;;;;;;;8.40;99.90;;;;;;5069066;28;19928;-80
2023/12/27 03:33:41;;;;;;;;;;;8.40;99.90;;;;;;5066875;28;20369;-80
2023/12/27 03:36:07;;;;;;;;;;;8.40;99.90;;;;;;5068248;28;20231;-80
2023/12/27 03:38:34;;;;;;;;;;;8.40;99.90;;;;;;5069109;28;19933;-79
2023/12/27 03:41:01;;;;;;;;;;;8.40;99.90;;;;;;5068683;28;19935;-81
2023/12/27 03:43:27;;;;;;;;;;;8.40;99.90;;;;;;5065382;28;20404;-78
2023/12/27 03:45:54;;;;;;;;;;;8.40;99.90;;;;;;5065923;28;19936;-79
2023/12/27 03:48:21;;;;;;;;;;;8.40;99.90;;;;;;5069894;28;19935;-79
2023/12/27 03:50:49;;;;;;;;;;;8.40;99.90;;;;;;5067607;28;19935;-78
2023/12/27 03:53:15;;;;;;;;;;;8.40;99.90;;;;;;5063257;28;19932;-80
2023/12/27 03:55:42;;;;;;;;;;;8.40;99.90;;;;;;5066456;28;19935;-79
2023/12/27 03:58:09;;;;;;;;;;;8.30;99.90;;;;;;5066806;28;19932;-79
2023/12/27 04:00:35;;;;;;;;;;;8.40;99.90;;;;;;5065245;28;19955;-80
2023/12/27 04:03:02;;;;;;;;;;;8.40;99.90;;;;;;5066061;28;20275;-80
2023/12/27 04:05:28;;;;;;;;;;;8.30;99.90;;;;;;5067616;28;19932;-79
2023/12/27 04:07:56;;;;;;;;;;;8.30;99.90;;;;;;5064510;28;19928;-79
2023/12/27 04:10:25;;;;;;;;;;;8.30;99.90;;;;;;5064074;28;19925;-79
2023/12/27 04:12:52;;;;;;;;;;;8.30;99.90;;;;;;5065236;28;20478;-79
2023/12/27 04:15:18;;;;;;;;;;;8.30;99.90;;;;;;5063906;28;19935;-79
2023/12/27 04:17:45;;;;;;;;;;;8.30;99.90;;;;;;5065302;28;19994;-78
2023/12/27 04:20:12;;;;;;;;;;;8.30;99.90;;;;;;5067427;28;20461;-78
2023/12/27 04:22:38;;;;;;;;;;;8.30;99.90;;;;;;5066547;28;19928;-78
2023/12/27 04:25:08;;;;;;;;;;;8.30;99.90;;;;;;5064984;28;19936;-82
2023/12/27 04:27:34;;;;;;;;;;;8.20;99.90;;;;;;5064586;28;20444;-82
2023/12/27 04:30:01;;;;;;;;;;;8.10;99.90;;;;;;5067384;28;19928;-82
2023/12/27 04:32:28;;;;;;;;;;;8.10;99.90;;;;;;5067192;28;19935;-82
2023/12/27 04:34:54;;;;;;;;;;;8.10;99.90;;;;;;5068580;28;19932;-81
2023/12/27 04:37:21;;;;;;;;;;;8.10;99.90;;;;;;5067812;28;19932;-81
2023/12/27 04:39:47;;;;;;;;;;;8.10;99.90;;;;;;5065699;28;19936;-81
2023/12/27 04:42:15;;;;;;;;;;;8.10;99.90;;;;;;5067409;28;19935;-81
2023/12/27 04:44:41;;;;;;;;;;;8.10;99.90;;;;;;5067529;28;20496;-81
2023/12/27 04:47:08;;;;;;;;;;;8.10;99.90;;;;;;5067362;28;21247;-81
2023/12/27 04:49:35;;;;;;;;;;;8.10;99.90;;;;;;5070407;28;19932;-81
2023/12/27 04:52:02;;;;;;;;;;;8.10;99.90;;;;;;5067802;28;19928;-82
2023/12/27 04:54:28;;;;;;;;;;;8.00;99.90;;;;;;5067726;28;20019;-82
2023/12/27 04:56:55;;;;;;;;;;;8.00;99.90;;;;;;5063543;28;19932;-81
2023/12/27 04:59:23;;;;;;;;;;;8.00;99.90;;;;;;5067079;28;19936;-81
2023/12/27 05:01:50;;;;;;;;;;;8.00;99.90;;;;;;5063344;28;19936;-82
2023/12/27 05:04:16;;;;;;;;;;;8.00;99.90;;;;;;5068413;28;19928;-82
2023/12/27 05:06:43;;;;;;;;;;;8.00;99.90;;;;;;5068428;28;19934;-82
2023/12/27 05:09:09;;;;;;;;;;;8.00;99.90;;;;;;5068161;28;19928;-82
2023/12/27 05:11:36;;;;;;;;;;;7.90;99.90;;;;;;5068692;28;19935;-82
2023/12/27 05:14:03;;;;;;;;;;;7.90;99.90;;;;;;5066019;28;20520;-82
2023/12/27 05:16:31;;;;;;;;;;;7.90;99.90;;;;;;5066437;28;19932;-82
2023/12/27 05:18:57;;;;;;;;;;;7.90;99.90;;;;;;5065747;28;19928;-81
2023/12/27 05:21:24;;;;;;;;;;;7.90;99.90;;;;;;5067698;28;19932;-82
2023/12/27 05:23:50;;;;;;;;;;;7.90;99.90;;;;;;5068246;28;20029;-82
2023/12/27 05:26:17;;;;;;;;;;;7.90;99.90;;;;;;5065851;28;19924;-82
2023/12/27 05:28:43;;;;;;;;;;;7.90;99.90;;;;;;5065667;28;19932;-82
2023/12/27 05:31:10;;;;;;;;;;;7.90;99.90;;;;;;5067617;28;19928;-82
2023/12/27 05:33:38;;;;;;;;;;;7.90;99.90;;;;;;5067258;28;19936;-82
2023/12/27 05:36:05;;;;;;;;;;;7.90;99.90;;;;;;5066529;28;20002;-82
2023/12/27 05:38:32;;;;;;;;;;;7.80;99.90;;;;;;5066457;28;19929;-82
2023/12/27 05:40:59;;;;;;;;;;;7.90;99.90;;;;;;5068135;28;20791;-82
2023/12/27 05:43:25;;;;;;;;;;;7.80;99.90;;;;;;5068780;28;20409;-82
2023/12/27 05:45:52;;;;;;;;;;;7.80;99.90;;;;;;5067377;28;19935;-82
2023/12/27 05:48:18;;;;;;;;;;;7.80;99.90;;;;;;5065576;28;19928;-82
2023/12/27 05:50:46;;;;;;;;;;;7.80;99.90;;;;;;5068391;28;19928;-82
2023/12/27 05:53:13;;;;;;;;;;;7.80;99.90;;;;;;5063121;28;19928;-82
2023/12/27 05:55:39;;;;;;;;;;;7.80;99.90;;;;;;5068090;28;19933;-81
2023/12/27 05:58:06;;;;;;;;;;;7.80;99.90;;;;;;5067627;28;20313;-82
2023/12/27 06:00:32;;;;;;;;;;;7.70;99.90;;;;;;5065480;28;20389;-81
2023/12/27 06:02:59;;;;;;;;;;;7.70;99.90;;;;;;5065055;28;20860;-81
2023/12/27 06:05:25;;;;;;;;;;;7.70;99.90;;;;;;5062023;28;19933;-81
2023/12/27 06:07:53;;;;;;;;;;;7.70;99.90;;;;;;5067176;28;19937;-81
2023/12/27 06:10:20;;;;;;;;;;;7.70;99.90;;;;;;5070704;28;19938;-81
2023/12/27 06:12:47;;;;;;;;;;;7.70;99.90;;;;;;5066818;28;19928;-81
2023/12/27 06:15:14;;;;;;;;;;;7.70;99.90;;;;;;5062346;28;20020;-81
2023/12/27 06:17:40;;;;;;;;;;;7.70;99.90;;;;;;5065818;28;19928;-81
2023/12/27 06:20:08;;;;;;;;;;;7.70;99.90;;;;;;5066226;28;19929;-82
2023/12/27 06:22:34;;;;;;;;;;;7.60;99.90;;;;;;5068997;28;19936;-81
2023/12/27 06:25:03;;;;;;;;;;;7.60;99.90;;;;;;5067615;28;20458;-82
2023/12/27 06:27:30;;;;;;;;;;;7.60;99.90;;;;;;5068123;28;20604;-81
2023/12/27 06:29:56;;;;;;;;;;;7.60;99.90;;;;;;5067735;28;19935;-81
2023/12/27 06:32:23;;;;;;;;;;;7.60;99.90;;;;;;5069347;28;19943;-81
2023/12/27 06:34:49;;;;;;;;;;;7.60;99.90;;;;;;5064252;28;19968;-82
2023/12/27 06:37:16;;;;;;;;;;;7.60;99.90;;;;;;5065515;28;19932;-81
2023/12/27 06:39:43;;;;;;;;;;;7.50;99.90;;;;;;5067498;28;20023;-81
2023/12/27 06:42:11;;;;;;;;;;;7.60;99.90;;;;;;5067460;28;19944;-81
2023/12/27 06:44:37;;;;;;;;;;;7.60;99.90;;;;;;5067696;28;19929;-81
2023/12/27 06:47:04;;;;;;;;;;;7.60;99.90;;;;;;5066504;28;19928;-81
2023/12/27 06:49:30;;;;;;;;;;;7.60;99.90;;;;;;5068376;28;20072;-81
2023/12/27 06:51:57;;;;;;;;;;;7.60;99.90;;;;;;5063529;28;19943;-82
2023/12/27 06:54:23;;;;;;;;;;;7.60;99.90;;;;;;5058681;28;19936;-82
2023/12/27 06:56:50;;;;;;;;;;;7.60;99.90;;;;;;5065324;28;19928;-81
2023/12/27 06:59:18;;;;;;;;;;;7.60;99.90;;;;;;5060246;28;20612;-81
2023/12/27 07:01:45;;;;;;;;;;;7.60;99.90;;;;;;5064533;28;21690;-81
2023/12/27 07:04:11;;;;;;;;;;;7.60;99.90;;;;;;5062788;28;19928;-82
2023/12/27 07:06:38;;;;;;;;;;;7.60;99.90;;;;;;5065211;28;19928;-82
2023/12/27 07:09:05;;;;;;;;;;;7.60;99.90;;;;;;5062755;28;19935;-82
2023/12/27 07:11:31;;;;;;;;;;;7.60;99.90;;;;;;5066049;28;19935;-82
2023/12/27 07:13:58;;;;;;;;;;;7.60;99.90;;;;;;5067881;28;19928;-82
2023/12/27 07:16:26;;;;;;;;;;;7.50;99.90;;;;;;5062481;28;19928;-82
2023/12/27 07:18:53;;;;;;;;;;;7.50;99.90;;;;;;5063546;28;19928;-81
2023/12/27 07:21:20;;;;;;;;;;;7.50;99.90;;;;;;5067472;28;19972;-81
2023/12/27 07:23:47;;;;;;;;;;;7.50;99.90;;;;;;5064515;28;19942;-81
2023/12/27 07:26:13;;;;;;;;;;;7.50;99.90;;;;;;5063531;28;19929;-81
2023/12/27 07:28:40;;;;;;;;;;;7.60;99.90;;;;;;5065111;28;19939;-81
2023/12/27 07:31:07;;;;;;;;;;;7.50;99.90;;;;;;5066154;28;19939;-82
2023/12/27 07:33:37;;;;;;;;;;;7.50;99.90;;;;;;5065860;28;19932;-82
2023/12/27 07:36:04;;;;;;;;;;;7.60;99.90;;;;;;5064779;28;19928;-82
2023/12/27 07:38:30;;;;;;;;;;;7.50;99.90;;;;;;5067409;28;19928;-81
2023/12/27 07:40:57;;;;;;;;;;;7.60;99.90;;;;;;5068505;28;20288;-81
2023/12/27 07:43:25;;;;;;;;;;;7.50;99.90;;;;;;5064660;28;19933;-81
2023/12/27 07:45:51;;;;;;;;;;;7.50;99.90;;;;;;5063405;28;20014;-81
2023/12/27 07:48:18;;;;;;;;;;;7.50;99.90;;;;;;5065591;28;19936;-81
2023/12/27 07:50:46;;;;;;;;;;;7.50;99.90;;;;;;5065740;28;19955;-81
2023/12/27 07:53:12;;;;;;;;;;;7.50;99.90;;;;;;5061976;28;20025;-81
2023/12/27 07:55:39;;;;;;;;;;;7.50;99.90;;;;;;5059642;28;20018;-81
2023/12/27 07:58:06;;;;;;;;;;;7.50;99.90;;;;;;5061611;28;19936;-80
2023/12/27 08:00:32;;;;;;;;;;;7.50;99.90;;;;;;5057326;28;19928;-78
2023/12/27 08:02:59;;;;;;;;;;;7.60;99.90;;;;;;5053777;28;20283;-80
2023/12/27 08:05:26;;;;;;;;;;;7.50;99.90;;;;;;5061086;28;19929;-79
2023/12/27 08:07:53;;;;;;;;;;;7.50;99.90;;;;;;5060493;28;19971;-84
2023/12/27 08:10:20;;;;;;;;;;;7.50;99.90;;;;;;5063199;28;19936;-81
2023/12/27 08:12:47;;;;;;;;;;;7.60;99.90;;;;;;5062721;28;19932;-82
2023/12/27 08:15:13;;;;;;;;;;;7.50;99.90;;;;;;5064493;28;20406;-85
2023/12/27 08:17:40;;;;;;;;;;;7.50;99.90;;;;;;5068303;28;19928;-81
2023/12/27 08:20:07;;;;;;;;;;;7.50;99.90;;;;;;5063830;28;19936;-83
2023/12/27 08:22:35;;;;;;;;;;;7.50;99.90;;;;;;5063772;28;19936;-84
2023/12/27 08:25:05;;;;;;;;;;;7.50;99.90;;;;;;5064959;28;19967;-81
2023/12/27 08:27:32;;;;;;;;;;;7.60;99.90;;;;;;5069267;28;19932;-84
2023/12/27 08:29:58;;;;;;;;;;;7.50;99.90;;;;;;5063273;28;19928;-82
2023/12/27 08:32:25;;;;;;;;;;;7.50;99.90;;;;;;5067590;28;19959;-81
2023/12/27 08:34:51;;;;;;;;;;;7.60;99.90;;;;;;5067458;28;19935;-81
2023/12/27 08:37:17;;;;;;;;;;;7.50;99.90;;;;;;5068764;28;19932;-83
2023/12/27 08:39:43;;;;;;;;;;;7.60;99.90;;;;;;5066868;28;19951;-83
2023/12/27 08:42:11;;;;;;;;;;;7.50;99.90;;;;;;5065455;28;20505;-84
2023/12/27 08:44:38;;;;;;;;;;;7.50;99.90;;;;;;5068305;28;19932;-83
2023/12/27 08:47:05;;;;;;;;;;;7.50;99.90;;;;;;5063251;28;19928;-84
2023/12/27 08:49:31;;;;;;;;;;;7.60;99.90;;;;;;5068466;28;20019;-82
2023/12/27 08:51:58;;;;;;;;;;;7.50;99.90;;;;;;5067095;28;20023;-81
2023/12/27 08:54:25;;;;;;;;;;;7.50;99.90;;;;;;5069829;28;20002;-82
2023/12/27 08:56:51;;;;;;;;;;;7.50;99.90;;;;;;5066669;28;19928;-81
2023/12/27 08:59:19;;;;;;;;;;;7.50;99.90;;;;;;5066882;28;19932;-82
2023/12/27 09:01:46;;;;;;;;;;;7.50;99.90;;;;;;5063428;28;19928;-84
2023/12/27 09:04:12;;;;;;;;;;;7.50;99.90;;;;;;5063027;28;19932;-83
2023/12/27 09:06:39;;;;;;;;;;;7.50;99.90;;;;;;5065795;28;20321;-80
2023/12/27 09:09:06;;;;;;;;;;;7.60;99.90;;;;;;5063934;28;20410;-82
2023/12/27 09:11:33;;;;;;;;;;;7.50;99.90;;;;;;5062256;28;20015;-76
2023/12/27 09:13:59;;;;;;;;;;;7.60;99.90;;;;;;5066096;28;19997;-83
2023/12/27 09:16:27;;;;;;;;;;;7.50;99.90;;;;;;5067087;28;19932;-83
2023/12/27 09:18:54;;;;;;;;;;;7.50;99.90;;;;;;5066976;28;19932;-82
2023/12/27 09:21:20;;;;;;;;;;;7.50;99.90;;;;;;5069406;28;19940;-83
2023/12/27 09:23:47;;;;;;;;;;;7.60;99.90;;;;;;5068770;28;19928;-82
2023/12/27 09:26:13;;;;;;;;;;;7.60;99.90;;;;;;5067349;28;19928;-83
2023/12/27 09:28:40;;;;;;;;;;;7.50;99.90;;;;;;5072570;28;19935;-83
2023/12/27 09:31:08;;;;;;;;;;;7.60;99.90;;;;;;5066709;28;19940;-82
2023/12/27 09:33:36;;;;;;;;;;;7.60;99.90;;;;;;5067097;28;19928;-83
2023/12/27 09:36:03;;;;;;;;;;;7.50;99.90;;;;;;5069976;28;19936;-82
2023/12/27 09:38:29;;;;;;;;;;;7.60;99.90;;;;;;5066930;28;19956;-83
2023/12/27 09:40:56;;;;;;;;;;;7.60;99.90;;;;;;5068888;28;19978;-83
2023/12/27 09:43:23;;;;;;;;;;;7.50;99.90;;;;;;5070847;28;19928;-83
2023/12/27 09:45:51;;;;;;;;;;;7.60;99.90;;;;;;5067876;28;20031;-82
2023/12/27 09:48:19;;;;;;;;;;;7.60;99.90;;;;;;5067539;28;19928;-82
2023/12/27 09:50:47;;;;;;;;;;;7.60;99.90;;;;;;5067621;28;20284;-83
2023/12/27 09:53:16;;;;;;;;;;;7.60;99.90;;;;;;5068387;28;19936;-83
2023/12/27 09:55:42;;;;;;;;;;;7.60;99.90;;;;;;5065554;28;19935;-82
2023/12/27 09:58:09;;;;;;;;;;;7.60;99.90;;;;;;5067352;28;20759;-82
2023/12/27 10:00:36;;;;;;;;;;;7.60;99.90;;;;;;5066389;28;19932;-85
2023/12/27 10:03:04;;;;;;;;;;;7.60;99.90;;;;;;5068122;28;19950;-83
2023/12/27 10:05:37;;;;;;;;;;;7.70;99.90;;;;;;5066832;28;19951;-81
2023/12/27 10:08:05;;;;;;;;;;;7.70;99.90;;;;;;5068132;28;19935;-82
2023/12/27 10:10:33;;;;;;;;;;;7.70;99.90;;;;;;5064564;28;19935;-81
2023/12/27 10:13:02;;;;;;;;;;;7.60;99.90;;;;;;5067422;28;20390;-81
2023/12/27 10:15:29;;;;;;;;;;;7.70;99.90;;;;;;5070694;28;19935;-82
2023/12/27 10:17:55;;;;;;;;;;;7.70;99.90;;;;;;5068377;28;19935;-83
2023/12/27 10:20:30;;;;;;;;;;;7.80;99.90;;;;;;5070360;28;19935;-80
2023/12/27 10:22:57;;;;;;;;;;;7.80;99.90;;;;;;5064357;28;19936;-81
2023/12/27 10:25:26;;;;;;;;;;;7.80;99.90;;;;;;5070853;28;19935;-81
2023/12/27 10:27:52;;;;;;;;;;;7.80;99.90;;;;;;5070387;28;20333;-82
2023/12/27 10:30:19;;;;;;;;;;;7.80;99.90;;;;;;5069423;28;19929;-81
2023/12/27 10:32:56;;;;;;;;;;;7.80;99.90;;;;;;5073522;28;19925;-84
2023/12/27 10:35:22;;;;;;;;;;;7.80;99.90;;;;;;5068186;28;20040;-83
2023/12/27 10:37:58;;;;;;;;;;;7.80;99.90;;;;;;5065760;28;20275;-80
2023/12/27 10:40:26;;;;;;;;;;;7.90;99.90;;;;;;5067606;28;20287;-82
2023/12/27 10:42:52;;;;;;;;;;;7.90;99.90;;;;;;5067096;28;20295;-83
2023/12/27 10:45:20;;;;;;;;;;;7.90;99.90;;;;;;5067735;28;19933;-80
2023/12/27 10:47:48;;;;;;;;;;;7.90;99.90;;;;;;5066101;28;19928;-83
2023/12/27 10:50:15;;;;;;;;;;;7.90;99.90;;;;;;5072016;28;19933;-80
2023/12/27 10:52:46;;;;;;;;;;;7.90;99.90;;;;;;5072564;28;19928;-81
2023/12/27 10:55:17;;;;;;;;;;;7.90;99.90;;;;;;5067646;28;19924;-82
2023/12/27 10:57:46;;;;;;;;;;;7.90;99.90;;;;;;5067131;28;19924;-82
2023/12/27 11:00:13;;;;;;;;;;;7.90;99.90;;;;;;5070300;28;19928;-81
2023/12/27 11:02:40;;;;;;;;;;;7.90;99.90;;;;;;5065242;28;19932;-83
2023/12/27 11:05:06;;;;;;;;;;;7.90;99.90;;;;;;5072794;28;19944;-83
2023/12/27 11:07:35;;;;;;;;;;;7.90;99.90;;;;;;5069333;28;20008;-83
2023/12/27 11:10:05;;;;;;;;;;;7.90;99.90;;;;;;5073867;28;19960;-82
2023/12/27 11:12:34;;;;;;;;;;;7.90;99.90;;;;;;5069381;28;19974;-81
2023/12/27 11:15:04;;;;;;;;;;;8.00;99.90;;;;;;5068664;28;19933;-81
2023/12/27 11:17:32;;;;;;;;;;;8.00;99.90;;;;;;5067744;28;19928;-82
2023/12/27 11:19:58;;;;;;;;;;;8.00;99.90;;;;;;5068185;28;19936;-82
2023/12/27 11:22:25;;;;;;;;;;;8.00;99.90;;;;;;5070843;28;19960;-82
2023/12/27 11:24:51;;;;;;;;;;;8.00;99.90;;;;;;5072221;28;20372;-82
2023/12/27 11:27:17;;;;;;;;;;;8.00;99.90;;;;;;5071840;28;19924;-81
2023/12/27 11:29:44;;;;;;;;;;;8.00;99.90;;;;;;5063796;28;20310;-82
2023/12/27 11:32:12;;;;;;;;;;;8.10;99.90;;;;;;5071757;28;19931;-81
2023/12/27 11:34:38;;;;;;;;;;;8.10;99.90;;;;;;5075054;28;19963;-83
2023/12/27 11:37:06;;;;;;;;;;;8.10;99.90;;;;;;5070500;28;19971;-81
2023/12/27 11:39:33;;;;;;;;;;;8.10;99.90;;;;;;5067294;28;20379;-81
2023/12/27 11:42:00;;;;;;;;;;;8.10;99.90;;;;;;5067418;28;19978;-81
2023/12/27 11:44:37;;;;;;;;;;;8.10;99.90;;;;;;5064993;28;20023;-81
2023/12/27 11:47:05;;;;;;;;;;;8.10;99.90;;;;;;5064260;28;19928;-81
2023/12/27 11:49:33;;;;;;;;;;;8.10;99.90;;;;;;5071372;28;19984;-81
2023/12/27 11:52:00;;;;;;;;;;;8.10;99.90;;;;;;5080247;28;19935;-81
2023/12/27 11:54:26;;;;;;;;;;;8.10;99.90;;;;;;5074062;28;19928;-80
2023/12/27 11:56:53;;;;;;;;;;;8.10;99.90;;;;;;5067897;28;19936;-80
2023/12/27 11:59:21;;;;;;;;;;;8.20;99.90;;;;;;5064891;28;20405;-81
2023/12/27 12:01:52;;;;;;;;;;;8.20;99.90;;;;;;5066255;28;19935;-82
2023/12/27 12:04:39;;;;;;;;;;;8.20;99.90;;;;;;5068243;28;19932;-81
2023/12/27 12:07:30;;;;;;;;;;;8.20;99.90;;;;;;5059723;28;19936;-80
2023/12/27 12:09:57;;;;;;;;;;;8.30;99.90;;;;;;5070962;28;19928;-82
2023/12/27 12:12:25;;;;;;;;;;;8.30;99.90;;;;;;5069416;28;19935;-81
2023/12/27 12:14:52;;;;;;;;;;;8.30;99.90;;;;;;5064162;28;19963;-81
2023/12/27 12:17:20;;;;;;;;;;;8.30;99.90;;;;;;5071556;28;19979;-82
2023/12/27 12:19:48;;;;;;;;;;;8.30;99.90;;;;;;5071569;28;19928;-81
2023/12/27 12:22:15;;;;;;;;;;;8.30;99.90;;;;;;5067585;28;19974;-80
2023/12/27 12:24:42;;;;;;;;;;;8.30;99.90;;;;;;5069030;28;20398;-79
2023/12/27 12:27:10;;;;;;;;;;;8.40;99.90;;;;;;5068830;28;19933;-82
2023/12/27 12:29:37;;;;;;;;;;;8.40;99.90;;;;;;5068181;28;19928;-80
2023/12/27 12:32:04;;;;;;;;;;;8.40;99.90;;;;;;5069426;28;19928;-82
2023/12/27 12:34:30;;;;;;;;;;;8.40;99.90;;;;;;5072707;28;19979;-82
2023/12/27 12:36:58;;;;;;;;;;;8.40;99.90;;;;;;5068438;28;19931;-80
2023/12/27 12:39:27;;;;;;;;;;;8.40;99.90;;;;;;5070256;28;20340;-82
2023/12/27 12:41:54;;;;;;;;;;;8.40;99.90;;;;;;5065757;28;20062;-81
2023/12/27 12:44:22;;;;;;;;;;;8.40;99.90;;;;;;5072595;28;19932;-81
2023/12/27 12:46:48;;;;;;;;;;;8.50;99.90;;;;;;5065185;28;19932;-80
2023/12/27 12:49:15;;;;;;;;;;;8.50;99.90;;;;;;5068132;28;19935;-81
2023/12/27 12:51:43;;;;;;;;;;;8.50;99.90;;;;;;5070181;28;19935;-81
2023/12/27 12:54:09;;;;;;;;;;;8.50;99.90;;;;;;5069888;28;19978;-80
2023/12/27 12:56:39;;;;;;;;;;;8.40;99.90;;;;;;5072469;28;19943;-79
2023/12/27 12:59:06;;;;;;;;;;;8.50;99.90;;;;;;5068218;28;20035;-81
2023/12/27 13:01:34;;;;;;;;;;;8.50;99.90;;;;;;5062407;28;19928;-82
2023/12/27 13:04:01;;;;;;;;;;;8.50;99.90;;;;;;5065698;28;19933;-82
2023/12/27 13:06:31;;;;;;;;;;;8.50;99.90;;;;;;5065317;28;20560;-82
2023/12/27 13:08:58;;;;;;;;;;;8.50;99.90;;;;;;5067429;28;19935;-81
2023/12/27 13:11:27;;;;;;;;;;;8.50;99.90;;;;;;5065957;28;20437;-80
2023/12/27 13:13:54;;;;;;;;;;;8.50;99.90;;;;;;5064683;28;20369;-81
2023/12/27 13:16:21;;;;;;;;;;;8.60;99.90;;;;;;5070873;28;20333;-82
2023/12/27 13:18:49;;;;;;;;;;;8.60;99.90;;;;;;5069861;28;19929;-80
2023/12/27 13:21:16;;;;;;;;;;;8.60;99.90;;;;;;5070688;28;20005;-82
2023/12/27 13:23:42;;;;;;;;;;;8.50;99.90;;;;;;5069272;28;19952;-80
2023/12/27 13:26:12;;;;;;;;;;;8.60;99.90;;;;;;5070423;28;19933;-82
2023/12/27 13:28:39;;;;;;;;;;;8.50;99.90;;;;;;5073605;28;19929;-81
2023/12/27 13:31:05;;;;;;;;;;;8.60;99.90;;;;;;5066707;28;19928;-82
2023/12/27 13:33:32;;;;;;;;;;;8.50;99.90;;;;;;5069470;28;19952;-83
2023/12/27 13:36:00;;;;;;;;;;;8.60;99.90;;;;;;5070361;28;19925;-83
2023/12/27 13:38:26;;;;;;;;;;;8.60;99.90;;;;;;5064197;28;19936;-81
2023/12/27 13:40:54;;;;;;;;;;;8.60;99.90;;;;;;5069182;28;19928;-81
2023/12/27 13:43:20;;;;;;;;;;;8.60;99.90;;;;;;5067141;28;20362;-82
2023/12/27 13:45:47;;;;;;;;;;;8.60;99.90;;;;;;5066929;28;19932;-81
2023/12/27 13:48:13;;;;;;;;;;;8.60;99.90;;;;;;5070371;28;19928;-82
2023/12/27 13:50:40;;;;;;;;;;;8.60;99.90;;;;;;5069273;28;19969;-82
2023/12/27 13:53:08;;;;;;;;;;;8.60;99.90;;;;;;5066911;28;19936;-82
2023/12/27 13:55:34;;;;;;;;;;;8.60;99.90;;;;;;5061600;28;19939;-81
2023/12/27 13:58:01;;;;;;;;;;;8.60;99.90;;;;;;5067676;28;19932;-81
2023/12/27 14:00:28;;;;;;;;;;;8.60;99.90;;;;;;5067095;28;19990;-82
2023/12/27 14:02:55;;;;;;;;;;;8.60;99.90;;;;;;5068691;28;19939;-81
2023/12/27 14:05:21;;;;;;;;;;;8.60;99.90;;;;;;5067546;28;19928;-78
2023/12/27 14:07:49;;;;;;;;;;;8.60;99.90;;;;;;5064010;28;20577;-81
2023/12/27 14:10:17;;;;;;;;;;;8.60;99.90;;;;;;5062980;28;19936;-80
2023/12/27 14:12:43;;;;;;;;;;;8.70;99.90;;;;;;5062434;28;20283;-80
2023/12/27 14:15:10;;;;;;;;;;;8.90;99.90;;;;;;5063381;28;19936;-83
2023/12/27 14:17:39;;;;;;;;;;;9.00;99.90;;;;;;5063885;28;20063;-79
2023/12/27 14:20:06;;;;;;;;;;;9.00;99.90;;;;;;5067690;28;19928;-80
2023/12/27 14:22:33;;;;;;;;;;;9.10;99.90;;;;;;5064972;28;19928;-80
2023/12/27 14:25:01;;;;;;;;;;;9.10;99.90;;;;;;5063651;28;20002;-81
2023/12/27 14:27:28;;;;;;;;;;;9.20;99.90;;;;;;5065411;28;19929;-80
2023/12/27 14:29:55;;;;;;;;;;;9.30;99.90;;;;;;5060895;28;19978;-80